createdAt,value
2024-05-09T00:01:35.319Z,97777.84
2024-05-09T00:04:04.956Z,97777.03
2024-05-09T00:06:37.003Z,97784.09
2024-05-09T00:09:06.510Z,97781.88
2024-05-09T00:11:35.968Z,97785.44
2024-05-09T00:14:05.328Z,97773.47
2024-05-09T00:16:34.894Z,97779.88
2024-05-09T00:19:04.410Z,97773.53
2024-05-09T00:21:33.837Z,97777.09
2024-05-09T00:24:06.243Z,97772.41
2024-05-09T00:26:35.673Z,97774.91
2024-05-09T00:29:05.168Z,97773.34
2024-05-09T00:31:34.587Z,97785.94
2024-05-09T00:34:04.027Z,97778.47
2024-05-09T00:36:33.467Z,97768.22
2024-05-09T00:39:02.837Z,97771.53
2024-05-09T00:41:34.929Z,97769.47
2024-05-09T00:44:04.703Z,97757.59
2024-05-09T00:46:34.226Z,97760.72
2024-05-09T00:49:05.311Z,97773.09
2024-05-09T00:51:34.754Z,97762.56
2024-05-09T00:54:05.571Z,97764.47
2024-05-09T00:56:38.127Z,97766.53
2024-05-09T00:59:07.682Z,97764.47
2024-05-09T01:01:37.577Z,97758.53
2024-05-09T01:04:07.409Z,97758.53
2024-05-09T01:06:36.932Z,97768.84
2024-05-09T01:09:06.472Z,97749.91
2024-05-09T01:11:39.289Z,97764.94
2024-05-09T01:14:08.983Z,97761.00
2024-05-09T01:16:38.416Z,97753.13
2024-05-09T01:19:09.159Z,97766.34
2024-05-09T01:21:43.058Z,97764.53
2024-05-09T01:24:15.095Z,97760.84
2024-05-09T01:26:44.479Z,97769.25
2024-05-09T01:29:13.891Z,97771.34
2024-05-09T01:31:43.339Z,97760.44
2024-05-09T01:34:12.844Z,97774.69
2024-05-09T01:36:42.208Z,97762.78
2024-05-09T01:39:11.542Z,97772.91
2024-05-09T01:41:43.589Z,97774.16
2024-05-09T01:44:12.982Z,97770.28
2024-05-09T01:46:42.417Z,97781.41
2024-05-09T01:49:11.986Z,97776.25
2024-05-09T01:51:41.448Z,97780.75
2024-05-09T01:54:10.827Z,97777.47
2024-05-09T01:56:43.186Z,97771.72
2024-05-09T01:59:12.767Z,97772.56
2024-05-09T02:01:56.278Z,97774.81
2024-05-09T02:04:27.376Z,97777.94
2024-05-09T02:06:56.657Z,97780.16
2024-05-09T02:09:26.020Z,97779.16
2024-05-09T02:11:58.152Z,97774.41
2024-05-09T02:14:27.884Z,97776.25
2024-05-09T02:16:57.330Z,97772.78
2024-05-09T02:19:26.827Z,97771.31
2024-05-09T02:21:56.227Z,97766.59
2024-05-09T02:24:25.566Z,97769.28
2024-05-09T02:26:54.954Z,97776.13
2024-05-09T02:29:26.982Z,97773.00
2024-05-09T02:31:56.604Z,97781.03
2024-05-09T02:34:26.123Z,97779.41
2024-05-09T02:36:56.302Z,97773.84
2024-05-09T02:39:23.170Z,97770.56
2024-05-09T02:41:52.521Z,97772.44
2024-05-09T02:44:19.291Z,97774.06
2024-05-09T02:46:51.345Z,97775.69
2024-05-09T02:49:18.137Z,97776.53
2024-05-09T02:51:47.544Z,97780.66
2024-05-09T02:54:14.325Z,97769.56
2024-05-09T02:56:43.682Z,97772.84
2024-05-09T02:59:10.700Z,97781.72
2024-05-09T03:01:40.247Z,97783.34
2024-05-09T03:04:09.805Z,97779.84
2024-05-09T03:06:42.818Z,97776.75
2024-05-09T03:09:09.886Z,97783.13
2024-05-09T03:11:40.577Z,97788.28
2024-05-09T03:14:07.472Z,97785.41
2024-05-09T03:16:40.436Z,97784.78
2024-05-09T03:19:10.463Z,97771.19
2024-05-09T03:21:41.450Z,97783.94
2024-05-09T03:24:08.212Z,97787.03
2024-05-09T03:26:37.616Z,97787.03
2024-05-09T03:29:04.714Z,97790.53
2024-05-09T03:31:34.205Z,97788.66
2024-05-09T03:34:01.215Z,97775.06
2024-05-09T03:36:33.324Z,97781.47
2024-05-09T03:39:02.748Z,97780.84
2024-05-09T03:41:32.307Z,97782.06
2024-05-09T03:43:59.262Z,97785.97
2024-05-09T03:46:28.909Z,97780.03
2024-05-09T03:48:55.752Z,97783.28
2024-05-09T03:51:25.161Z,97777.50
2024-05-09T03:53:54.593Z,97777.94
2024-05-09T03:56:24.108Z,97780.41
2024-05-09T03:58:50.966Z,97785.75
2024-05-09T04:01:20.654Z,97780.59
2024-05-09T04:03:47.649Z,97783.28
2024-05-09T04:06:22.928Z,97787.41
2024-05-09T04:08:49.671Z,97792.13
2024-05-09T04:11:21.811Z,97793.59
2024-05-09T04:13:48.673Z,97795.44
2024-05-09T04:16:18.159Z,97792.34
2024-05-09T04:18:45.111Z,97797.72
2024-05-09T04:21:14.613Z,97797.09
2024-05-09T04:23:41.568Z,97813.56
2024-05-09T04:26:11.030Z,97815.81
2024-05-09T04:28:40.398Z,97819.09
2024-05-09T04:31:09.770Z,97823.41
2024-05-09T04:33:36.863Z,97824.44
2024-05-09T04:36:06.761Z,97822.41
2024-05-09T04:38:33.413Z,97828.19
2024-05-09T04:41:02.882Z,97823.66
2024-05-09T04:43:29.667Z,97826.34
2024-05-09T04:46:01.666Z,97830.91
2024-05-09T04:48:29.014Z,97827.00
2024-05-09T04:50:58.490Z,97826.19
2024-05-09T04:53:25.296Z,97829.88
2024-05-09T04:55:54.762Z,97821.84
2024-05-09T04:58:21.638Z,97826.78
2024-05-09T05:00:51.063Z,97824.94
2024-05-09T05:03:20.594Z,97836.66
2024-05-09T05:05:50.340Z,97795.28
2024-05-09T05:08:19.084Z,97811.09
2024-05-09T05:10:49.768Z,97819.78
2024-05-09T05:13:18.281Z,97822.66
2024-05-09T05:15:48.602Z,97816.47
2024-05-09T05:18:16.275Z,97823.25
2024-05-09T05:20:48.666Z,97825.72
2024-05-09T05:23:19.302Z,97825.47
2024-05-09T05:25:47.872Z,97819.72
2024-05-09T05:28:18.594Z,97826.47
2024-05-09T05:30:45.692Z,97825.69
2024-05-09T05:33:18.393Z,97821.31
2024-05-09T05:35:48.354Z,97826.22
2024-05-09T05:38:18.182Z,97817.97
2024-05-09T05:40:45.022Z,97829.03
2024-05-09T05:43:19.178Z,97823.41
2024-05-09T05:45:46.403Z,97821.31
2024-05-09T05:48:17.206Z,97833.66
2024-05-09T05:50:47.182Z,97830.06
2024-05-09T05:53:16.967Z,97828.56
2024-05-09T05:55:43.884Z,97824.19
2024-05-09T05:58:14.754Z,97836.06
2024-05-09T06:00:42.581Z,97836.06
2024-05-09T06:03:13.452Z,97835.03
2024-05-09T06:05:43.182Z,97823.47
2024-05-09T06:08:15.561Z,97831.34
2024-05-09T06:10:42.698Z,97832.94
2024-05-09T06:13:13.754Z,97833.50
2024-05-09T06:15:41.594Z,97819.25
2024-05-09T06:18:12.585Z,97826.34
2024-05-09T06:20:41.704Z,97834.28
2024-05-09T06:23:12.841Z,97826.59
2024-05-09T06:25:44.002Z,97814.97
2024-05-09T06:28:13.510Z,97820.19
2024-05-09T06:30:42.409Z,97811.88
2024-05-09T06:33:15.593Z,97820.53
2024-05-09T06:35:43.796Z,97820.00
2024-05-09T06:38:13.599Z,97818.44
2024-05-09T06:40:44.180Z,97815.16
2024-05-09T06:43:16.413Z,97819.16
2024-05-09T06:45:46.098Z,97810.28
2024-05-09T06:48:15.736Z,97810.28
2024-05-09T06:50:42.636Z,97816.84
2024-05-09T06:53:12.191Z,97818.13
2024-05-09T06:55:38.969Z,97779.53
2024-05-09T06:58:11.710Z,97814.94
2024-05-09T07:00:40.901Z,97784.81
2024-05-09T07:03:12.960Z,97816.19
2024-05-09T07:05:41.875Z,97812.69
2024-05-09T07:08:11.511Z,97809.44
2024-05-09T07:10:38.524Z,97818.03
2024-05-09T07:13:13.654Z,97816.13
2024-05-09T07:15:41.610Z,97817.44
2024-05-09T07:18:13.852Z,97807.16
2024-05-09T07:20:41.347Z,97808.09
2024-05-09T07:23:11.608Z,97793.31
2024-05-09T07:25:38.586Z,97809.06
2024-05-09T07:28:08.569Z,97807.75
2024-05-09T07:30:40.541Z,97801.94
2024-05-09T07:33:07.500Z,97803.56
2024-05-09T07:35:37.424Z,97808.88
2024-05-09T07:38:04.815Z,97785.97
2024-05-09T07:40:36.785Z,97801.81
2024-05-09T07:43:04.248Z,97793.84
2024-05-09T07:53:36.747Z,97796.22
2024-05-09T07:55:58.452Z,97793.25
2024-05-09T07:58:27.819Z,97792.41
2024-05-09T08:00:57.521Z,97802.22
2024-05-09T08:03:26.922Z,97800.09
2024-05-09T08:05:56.901Z,97792.41
2024-05-09T08:08:23.729Z,97789.84
2024-05-09T08:10:53.599Z,97784.75
2024-05-09T08:13:20.830Z,97780.16
2024-05-09T08:15:51.662Z,97788.03
2024-05-09T08:18:18.674Z,97786.00
2024-05-09T08:20:51.146Z,97787.81
2024-05-09T08:23:18.027Z,97785.66
2024-05-09T08:25:48.001Z,97783.84
2024-05-09T08:28:15.351Z,97784.28
2024-05-09T08:30:45.666Z,97771.16
2024-05-09T08:33:12.654Z,97776.16
2024-05-09T08:35:42.071Z,97786.91
2024-05-09T08:38:11.491Z,97786.34
2024-05-09T08:40:40.897Z,97784.28
2024-05-09T08:43:09.809Z,97774.19
2024-05-09T08:45:43.760Z,97780.84
2024-05-09T08:48:13.337Z,97781.91
2024-05-09T08:50:44.810Z,97785.34
2024-05-09T08:53:15.483Z,97779.84
2024-05-09T08:55:45.361Z,97780.94
2024-05-09T08:58:15.927Z,97790.09
2024-05-09T09:00:46.769Z,97775.22
2024-05-09T09:03:17.014Z,97783.78
2024-05-09T09:05:51.701Z,97785.66
2024-05-09T09:08:21.448Z,97779.16
2024-05-09T09:10:52.971Z,97780.19
2024-05-09T09:13:19.894Z,97783.53
2024-05-09T09:15:50.219Z,97774.81
2024-05-09T09:18:18.028Z,97788.13
2024-05-09T09:20:47.862Z,97785.28
2024-05-09T09:23:14.975Z,97788.41
2024-05-09T09:25:47.316Z,97781.88
2024-05-09T09:28:14.393Z,97777.78
2024-05-09T09:30:44.238Z,97768.25
2024-05-09T09:33:12.110Z,97768.53
2024-05-09T09:35:42.443Z,97772.38
2024-05-09T09:38:10.704Z,97769.38
2024-05-09T09:40:45.792Z,97786.97
2024-05-09T09:43:19.753Z,97774.72
2024-05-09T09:45:49.555Z,97772.44
2024-05-09T09:48:16.743Z,97777.47
2024-05-09T09:50:46.445Z,97768.09
2024-05-09T09:53:14.182Z,97766.44
2024-05-09T09:55:44.524Z,97770.22
2024-05-09T09:58:14.410Z,97773.41
2024-05-09T10:00:47.381Z,97762.16
2024-05-09T10:03:14.454Z,97772.19
2024-05-09T10:05:46.981Z,97763.41
2024-05-09T10:08:14.971Z,97760.28
2024-05-09T10:10:48.829Z,97763.28
2024-05-09T10:13:16.320Z,97754.28
2024-05-09T10:15:49.427Z,97756.34
2024-05-09T10:18:16.653Z,97751.09
2024-05-09T10:20:46.666Z,97753.25
2024-05-09T10:23:24.720Z,97753.03
2024-05-09T10:26:01.003Z,97752.16
2024-05-09T10:28:28.066Z,97745.88
2024-05-09T10:31:13.897Z,97757.06
2024-05-09T10:33:46.059Z,97748.94
2024-05-09T10:36:16.106Z,97748.50
2024-05-09T10:38:44.062Z,97743.88
2024-05-09T10:41:13.961Z,97726.13
2024-05-09T10:43:41.425Z,97742.50
2024-05-09T10:46:14.599Z,97740.41
2024-05-09T10:48:42.852Z,97741.47
2024-05-09T10:51:12.364Z,97732.78
2024-05-09T10:53:42.389Z,97738.88
2024-05-09T10:56:12.229Z,97725.06
2024-05-09T10:58:39.195Z,97727.53
2024-05-09T11:01:09.066Z,97722.59
2024-05-09T11:03:39.567Z,97726.88
2024-05-09T11:06:09.809Z,97720.53
2024-05-09T11:08:37.045Z,97728.22
2024-05-09T11:11:08.493Z,97731.94
2024-05-09T11:13:36.928Z,97730.25
2024-05-09T11:16:07.963Z,97730.84
2024-05-09T11:18:38.113Z,97722.31
2024-05-09T11:21:14.647Z,97722.72
2024-05-09T11:23:41.703Z,97715.16
2024-05-09T11:26:15.154Z,97720.97
2024-05-09T11:28:44.131Z,97719.16
2024-05-09T11:31:13.540Z,97711.03
2024-05-09T11:33:42.426Z,97679.81
2024-05-09T11:36:14.485Z,97700.03
2024-05-09T11:38:41.296Z,97707.41
2024-05-09T11:41:10.794Z,97695.72
2024-05-09T11:43:37.791Z,97697.88
2024-05-09T11:46:07.574Z,97691.34
2024-05-09T11:48:34.633Z,97691.91
2024-05-09T11:51:04.173Z,97706.59
2024-05-09T11:53:33.604Z,97695.13
2024-05-09T11:56:03.200Z,97700.03
2024-05-09T11:58:34.296Z,97692.97
2024-05-09T12:01:04.544Z,97699.72
2024-05-09T12:03:31.581Z,97690.22
2024-05-09T12:06:01.106Z,97683.13
2024-05-09T12:08:28.098Z,97679.88
2024-05-09T12:11:00.345Z,97677.34
2024-05-09T12:13:27.291Z,97667.06
2024-05-09T12:15:56.930Z,97675.03
2024-05-09T12:18:23.754Z,97675.00
2024-05-09T12:20:53.190Z,97675.28
2024-05-09T12:23:19.970Z,97649.44
2024-05-09T12:25:49.869Z,97678.00
2024-05-09T12:28:19.965Z,97674.75
2024-05-09T12:30:50.623Z,97667.69
2024-05-09T12:33:19.858Z,97669.84
2024-05-09T12:35:51.046Z,97659.22
2024-05-09T12:38:18.507Z,97658.63
2024-05-09T12:40:48.174Z,97659.34
2024-05-09T12:43:15.073Z,97645.22
2024-05-09T12:45:47.195Z,97665.66
2024-05-09T12:48:14.274Z,97649.84
2024-05-09T12:50:44.119Z,97645.34
2024-05-09T12:53:11.032Z,97642.50
2024-05-09T12:55:48.411Z,97647.72
2024-05-09T12:58:22.029Z,97644.38
2024-05-09T13:00:54.421Z,97638.50
2024-05-09T13:03:21.927Z,97640.06
2024-05-09T13:05:52.015Z,97633.84
2024-05-09T13:08:19.528Z,97633.88
2024-05-09T13:10:50.292Z,97633.88
2024-05-09T13:13:17.325Z,97630.84
2024-05-09T13:15:46.887Z,97630.88
2024-05-09T13:18:16.396Z,97623.72
2024-05-09T13:20:46.833Z,97621.00
2024-05-09T13:23:13.668Z,97622.47
2024-05-09T13:25:43.163Z,97619.19
2024-05-09T13:28:10.125Z,97621.97
2024-05-09T13:30:41.853Z,97619.88
2024-05-09T13:33:09.659Z,97620.47
2024-05-09T13:35:46.790Z,97609.63
2024-05-09T13:38:17.049Z,97606.75
2024-05-09T13:40:46.888Z,97602.72
2024-05-09T13:43:14.219Z,97600.50
2024-05-09T13:45:43.883Z,97596.09
2024-05-09T13:48:10.954Z,97584.94
2024-05-09T13:50:43.068Z,97597.47
2024-05-09T13:53:09.862Z,97584.78
2024-05-09T13:55:40.686Z,97579.06
2024-05-09T13:58:08.751Z,97582.72
2024-05-09T14:00:46.199Z,97578.19
2024-05-09T14:03:16.487Z,97567.94
2024-05-09T14:05:51.183Z,97571.66
2024-05-09T14:08:20.282Z,97577.53
2024-05-09T14:10:50.563Z,97578.13
2024-05-09T14:13:17.684Z,97578.97
2024-05-09T14:15:48.281Z,97571.66
2024-05-09T14:18:15.295Z,97574.63
2024-05-09T14:20:44.787Z,97565.91
2024-05-09T14:23:14.307Z,97577.56
2024-05-09T14:25:44.996Z,97567.44
2024-05-09T14:28:13.444Z,97560.03
2024-05-09T14:30:43.369Z,97552.59
2024-05-09T14:33:10.386Z,97563.97
2024-05-09T14:35:40.517Z,97546.53
2024-05-09T14:38:08.027Z,97555.44
2024-05-09T14:40:43.610Z,97553.44
2024-05-09T14:43:11.276Z,97524.31
2024-05-09T14:45:41.094Z,97541.66
2024-05-09T14:48:08.643Z,97549.19
2024-05-09T14:50:40.003Z,97548.72
2024-05-09T14:53:08.211Z,97546.72
2024-05-09T14:55:42.149Z,97541.25
2024-05-09T14:58:13.561Z,97541.84
2024-05-09T15:00:46.343Z,97543.78
2024-05-09T15:03:19.945Z,97540.50
2024-05-09T15:05:47.861Z,97538.88
2024-05-09T15:08:19.718Z,97537.22
2024-05-09T15:10:50.437Z,97531.97
2024-05-09T15:13:20.667Z,97526.13
2024-05-09T15:15:48.250Z,97522.59
2024-05-09T15:18:18.290Z,97520.41
2024-05-09T15:20:45.827Z,97517.63
2024-05-09T15:23:15.420Z,97513.47
2024-05-09T15:25:44.269Z,97512.25
2024-05-09T15:28:16.614Z,97509.03
2024-05-09T15:30:46.324Z,97509.25
2024-05-09T15:33:16.669Z,97518.19
2024-05-09T15:35:45.706Z,97509.38
2024-05-09T15:38:15.684Z,97500.66
2024-05-09T15:40:42.451Z,97518.28
2024-05-09T15:43:12.511Z,97510.66
2024-05-09T15:45:42.216Z,97512.56
2024-05-09T15:48:12.453Z,97511.00
2024-05-09T15:50:41.661Z,97499.03
2024-05-09T15:53:13.149Z,97508.31
2024-05-09T15:55:43.356Z,97502.44
2024-05-09T15:58:10.552Z,97510.09
2024-05-09T16:00:42.614Z,97502.47
2024-05-09T16:03:14.704Z,97498.38
2024-05-09T16:05:46.934Z,97503.56
2024-05-09T16:08:15.136Z,97494.03
2024-05-09T16:10:46.154Z,97513.09
2024-05-09T16:13:14.203Z,97498.69
2024-05-09T16:15:46.515Z,97504.69
2024-05-09T16:18:16.208Z,97505.84
2024-05-09T16:20:48.401Z,97499.88
2024-05-09T16:23:16.864Z,97493.84
2024-05-09T16:25:48.036Z,97495.53
2024-05-09T16:28:15.415Z,97494.16
2024-05-09T16:30:44.944Z,97493.63
2024-05-09T16:33:12.338Z,97486.81
2024-05-09T16:35:44.517Z,97481.09
2024-05-09T16:38:11.374Z,97486.53
2024-05-09T16:40:41.590Z,97488.16
2024-05-09T16:43:09.222Z,97480.03
2024-05-09T16:45:39.806Z,97477.03
2024-05-09T16:48:07.491Z,97484.63
2024-05-09T16:50:37.237Z,97480.28
2024-05-09T16:53:07.350Z,97480.03
2024-05-09T16:55:37.106Z,97480.84
2024-05-09T16:58:04.960Z,97477.59
2024-05-09T17:00:40.771Z,97475.13
2024-05-09T17:03:13.103Z,97483.84
2024-05-09T17:05:43.937Z,97472.69
2024-05-09T17:08:15.252Z,97479.22
2024-05-09T17:10:44.862Z,97480.31
2024-05-09T17:13:14.404Z,97480.28
2024-05-09T17:15:44.230Z,97477.22
2024-05-09T17:18:13.802Z,97485.91
2024-05-09T17:20:43.312Z,97462.50
2024-05-09T17:23:13.708Z,97474.22
2024-05-09T17:25:46.505Z,97473.38
2024-05-09T17:28:13.469Z,97479.34
2024-05-09T17:30:43.285Z,97476.31
2024-05-09T17:33:11.399Z,97479.00
2024-05-09T17:35:41.891Z,97482.22
2024-05-09T17:38:09.031Z,97480.59
2024-05-09T17:40:39.338Z,97455.53
2024-05-09T17:43:10.711Z,97478.91
2024-05-09T17:45:41.599Z,97481.84
2024-05-09T17:48:10.372Z,97490.78
2024-05-09T17:50:41.588Z,97481.25
2024-05-09T17:53:08.978Z,97488.84
2024-05-09T17:55:38.828Z,97494.47
2024-05-09T17:58:06.034Z,97481.38
2024-05-09T18:00:41.259Z,97495.22
2024-05-09T18:03:12.075Z,97485.94
2024-05-09T18:05:44.104Z,97486.16
2024-05-09T18:08:12.494Z,97479.63
2024-05-09T18:10:43.021Z,97477.94
2024-05-09T18:13:10.960Z,97478.44
2024-05-09T18:15:45.078Z,97481.13
2024-05-09T18:18:12.365Z,97490.53
2024-05-09T18:20:45.266Z,97490.19
2024-05-09T18:23:14.640Z,97486.31
2024-05-09T18:25:45.453Z,97486.22
2024-05-09T18:28:12.550Z,97493.97
2024-05-09T18:30:44.715Z,97496.06
2024-05-09T18:33:12.252Z,97492.13
2024-05-09T18:35:43.907Z,97489.06
2024-05-09T18:38:10.909Z,97498.38
2024-05-09T18:40:42.697Z,97499.91
2024-05-09T18:43:10.748Z,97502.50
2024-05-09T18:45:40.405Z,97500.41
2024-05-09T18:48:10.564Z,97507.31
2024-05-09T18:50:41.550Z,97511.53
2024-05-09T18:53:09.912Z,97514.91
2024-05-09T18:55:39.534Z,97513.94
2024-05-09T18:58:06.441Z,97512.13
2024-05-09T19:00:39.007Z,97520.91
2024-05-09T19:03:13.202Z,97521.81
2024-05-09T19:05:45.500Z,97528.19
2024-05-09T19:08:13.353Z,97523.44
2024-05-09T19:10:42.908Z,97529.59
2024-05-09T19:13:12.752Z,97526.47
2024-05-09T19:15:44.081Z,97538.25
2024-05-09T19:18:14.840Z,97533.81
2024-05-09T19:20:45.065Z,97539.13
2024-05-09T19:23:12.156Z,97547.38
2024-05-09T19:25:41.601Z,97548.09
2024-05-09T19:28:08.736Z,97546.88
2024-05-09T19:30:41.466Z,97545.94
2024-05-09T19:33:11.474Z,97545.81
2024-05-09T19:35:44.791Z,97555.19
2024-05-09T19:38:12.016Z,97558.63
2024-05-09T19:40:41.582Z,97547.25
2024-05-09T19:43:11.393Z,97557.72
2024-05-09T19:45:38.567Z,97556.19
2024-05-09T19:48:08.875Z,97556.00
2024-05-09T19:50:41.730Z,97561.53
2024-05-09T19:53:16.788Z,97559.19
2024-05-09T19:55:43.701Z,97560.75
2024-05-09T19:58:13.393Z,97560.63
2024-05-09T20:00:42.679Z,97560.63
2024-05-09T20:03:14.267Z,97568.94
2024-05-09T20:05:42.442Z,97567.41
2024-05-09T20:08:12.008Z,97571.66
2024-05-09T20:10:41.509Z,97571.78
2024-05-09T20:13:10.940Z,97563.00
2024-05-09T20:15:38.644Z,97552.47
2024-05-09T20:18:08.891Z,97565.72
2024-05-09T20:20:39.901Z,97568.16
2024-05-09T20:23:12.538Z,97572.84
2024-05-09T20:25:42.340Z,97572.97
2024-05-09T20:28:11.908Z,97569.31
2024-05-09T20:30:38.896Z,97574.34
2024-05-09T20:33:09.689Z,97568.03
2024-05-09T20:35:37.209Z,97566.81
2024-05-09T20:38:07.023Z,97573.25
2024-05-09T20:40:37.571Z,97566.91
2024-05-09T20:43:11.910Z,97572.22
2024-05-09T20:45:39.512Z,97575.13
2024-05-09T20:48:11.410Z,97576.75
2024-05-09T20:50:41.353Z,97569.81
2024-05-09T20:53:13.432Z,97568.06
2024-05-09T20:55:41.691Z,97570.03
2024-05-09T20:58:14.131Z,97573.63
2024-05-09T21:00:44.387Z,97568.81
2024-05-09T21:03:17.100Z,97573.56
2024-05-09T21:05:44.817Z,97569.72
2024-05-09T21:08:14.342Z,97569.59
2024-05-09T21:10:41.404Z,97569.44
2024-05-09T21:13:13.657Z,97572.00
2024-05-09T21:15:40.808Z,97563.78
2024-05-09T21:18:10.782Z,97566.09
2024-05-09T21:20:37.800Z,97564.13
2024-05-09T21:23:07.667Z,97563.97
2024-05-09T21:25:34.530Z,97564.66
2024-05-09T21:28:03.959Z,97571.50
2024-05-09T21:30:41.218Z,97564.34
2024-05-09T21:33:14.072Z,97565.03
2024-05-09T21:35:42.172Z,97569.22
2024-05-09T21:38:13.545Z,97563.03
2024-05-09T21:40:40.607Z,97568.03
2024-05-09T21:43:10.055Z,97565.00
2024-05-09T21:45:39.553Z,97564.16
2024-05-09T21:48:10.201Z,97565.63
2024-05-09T21:50:41.014Z,97559.69
2024-05-09T21:53:12.600Z,97564.44
2024-05-09T21:55:40.046Z,97574.84
2024-05-09T21:58:10.526Z,97571.69
2024-05-09T22:00:40.744Z,97573.09
2024-05-09T22:03:11.912Z,97580.41
2024-05-09T22:05:41.912Z,97573.41
2024-05-09T22:08:11.708Z,97572.78
2024-05-09T22:10:38.831Z,97572.44
2024-05-09T22:13:09.081Z,97575.72
2024-05-09T22:15:40.491Z,97559.59
2024-05-09T22:18:11.414Z,97579.94
2024-05-09T22:20:44.261Z,97569.94
2024-05-09T22:23:14.979Z,97576.50
2024-05-09T22:25:42.243Z,97567.69
2024-05-09T22:28:11.685Z,97572.47
2024-05-09T22:30:41.277Z,97578.06
2024-05-09T22:33:12.088Z,97568.53
2024-05-09T22:35:40.085Z,97575.75
2024-05-09T22:38:09.696Z,97572.75
2024-05-09T22:40:46.394Z,97569.44
2024-05-09T22:43:24.577Z,97565.91
2024-05-09T22:45:55.317Z,97569.28
2024-05-09T22:48:25.715Z,97572.13
2024-05-09T22:50:53.085Z,97556.97
2024-05-09T22:53:24.075Z,97572.56
2024-05-09T22:55:50.882Z,97571.50
2024-05-09T22:58:20.786Z,97568.44
2024-05-09T23:00:47.887Z,97568.69
2024-05-09T23:03:21.760Z,97567.47
2024-05-09T23:05:49.253Z,97563.16
2024-05-09T23:08:18.682Z,97572.28
2024-05-09T23:10:45.629Z,97567.13
2024-05-09T23:13:15.222Z,97569.19
2024-05-09T23:15:42.196Z,97564.84
2024-05-09T23:18:11.671Z,97568.44
2024-05-09T23:20:41.203Z,97572.16
2024-05-09T23:23:12.100Z,97570.97
2024-05-09T23:25:39.271Z,97553.94
2024-05-09T23:28:08.964Z,97566.72
2024-05-09T23:30:39.060Z,97549.88
2024-05-09T23:33:10.745Z,97559.59
2024-05-09T23:35:41.102Z,97555.06
2024-05-09T23:38:10.512Z,97545.88
2024-05-09T23:40:40.171Z,97549.72
2024-05-09T23:43:11.629Z,97553.50
2024-05-09T23:45:40.487Z,97552.53
2024-05-09T23:48:11.077Z,97545.34
2024-05-09T23:50:41.304Z,97547.19
2024-05-09T23:53:11.403Z,97545.44
2024-05-09T23:55:38.691Z,97513.94
2024-05-09T23:58:08.578Z,97541.91
